Jump to content


CITYJET FLIGHT WX263 FLOWN ON 01-13-2018 BY CAPTAIN DEREK ROGY

Pilot StatsCaptain Derek Rogy (LDP86) • 1,587.9 total hours • 833 total flights [View Logbook]
FLIGHT DETAILS
StatusReceived and approved on 2018-01-13 at 17:01:34
Origin AirportGardermoen (ENGM) • Oslo, Norway (681 feet MSL)
Filed Flight PlanENGM GIMEX P600 ATLAP N623 PESUR ENBR
Destination AirportFlesland (ENBR) • Bergen, Norway (165 feet MSL)
Alternate AirportNone Filed
AirlineCityJet
AircraftBombardier CRJ-900 (CR9 / CRJ-900)
FS Aircraft UsedCRJ900ER SAS Scandinavian Airlines OY-KFI
Cruising AltitudeFL220
Distance Flown175 nautical miles
Passengers Onboard72 passengers (83.72% full)
DEPARTURE DETAILS
Time Out12:10:51
Taxi Data73,022 lbs total with 9,143 lbs of fuel onboard
Takeoff Data12:32:46 (22 minutes after leaving gate/ramp) • 72,560 lbs total • 7° pitch at 150 knots
Departure METARENGM 132020Z 00000KT 9999 BKN018 M04/M06 Q1035 NOSIG
ARRIVAL DETAILS
Landing Data13:16:17 • 69,516 lbs total • 3° pitch doing 123 knots at a rate of -238.37 feet/minute with 5,501 lbs of fuel onboard
Time In13:21:06 (5 minutes after landing)
Ramp Weight69,380 lbs total
Total Fuel Used3,642 lbs
Total Block Time01:10:13 (1.2 hours) while 27 minutes were spent on the ground
Arrival METARENBR 132150Z 13011KT 9999 SCT045 BKN065 03/M06 Q1026 RMK WIND 1200FT 13020KT
MISCELLANEOUS DETAILS
LiveDISPATCH Version4.8.3.1
FS Version
FSUIPC Version5.12
OS VersionWindows 7 32-bit
Screen Resolution1920 x 1200
Pilot's CommentsNo Comments Reported
FLIGHT MAP